Terminal Aerodrome Forecast
Issued by NWS Tulsa, OK

Home | Current Version | Previous Version | Text Only | Print | Product List | Glossary On
Versions: 1 2 3 4 5 6 7 8 9 10 11 12 13
000
FTUS44 KTSA 211100
TAFTUL
TAF
KTUL 211126Z 2112/2212 14004KT P6SM SCT040
      TEMPO 2112/2114 4SM BR
     FM220000 14003KT P6SM SCT040=

USA.gov is the U.S. government's official web portal to all federal, state and local government web resources and services.